createdAt,value
2019-05-17T00:02:28.953Z,74.59
2019-05-17T00:05:00.946Z,74.30
2019-05-17T00:07:32.915Z,74.59
2019-05-17T00:10:06.778Z,75.05
2019-05-17T00:12:38.948Z,74.98
2019-05-17T00:15:11.126Z,74.83
2019-05-17T00:17:43.077Z,74.94
2019-05-17T00:20:17.422Z,75.18
2019-05-17T00:22:49.026Z,76.31
2019-05-17T00:25:21.026Z,76.46
2019-05-17T00:27:53.025Z,76.29
2019-05-17T00:30:26.556Z,76.74
2019-05-17T00:32:58.690Z,76.62
2019-05-17T00:35:30.674Z,76.45
2019-05-17T00:38:02.656Z,76.86
2019-05-17T00:40:36.674Z,76.96
2019-05-17T00:43:08.469Z,77.16
2019-05-17T00:45:40.419Z,77.22
2019-05-17T00:48:12.382Z,77.08
2019-05-17T00:50:44.351Z,77.33
2019-05-17T00:53:16.460Z,77.09
2019-05-17T00:55:48.511Z,76.90
2019-05-17T00:58:20.464Z,76.31
2019-05-17T01:00:52.544Z,76.53
2019-05-17T01:03:26.777Z,76.92
2019-05-17T01:05:58.422Z,77.08
2019-05-17T01:08:30.503Z,77.25
2019-05-17T01:11:02.470Z,77.20
2019-05-17T01:13:34.434Z,76.97
2019-05-17T01:16:07.319Z,76.88
2019-05-17T01:21:38.353Z,76.42
2019-05-17T01:24:07.443Z,76.39
2019-05-17T01:26:42.915Z,76.07
2019-05-17T01:29:17.297Z,76.01
2019-05-17T01:31:48.838Z,76.09
2019-05-17T01:34:20.823Z,75.87
2019-05-17T01:36:52.797Z,76.18
2019-05-17T01:39:26.733Z,76.20
2019-05-17T01:41:58.671Z,76.55
2019-05-17T01:44:30.669Z,76.95
2019-05-17T01:47:02.657Z,77.07
2019-05-17T01:49:36.313Z,77.36
2019-05-17T01:52:08.515Z,77.32
2019-05-17T01:54:40.507Z,77.91
2019-05-17T01:57:12.484Z,77.75
2019-05-17T01:59:46.550Z,77.67
2019-05-17T02:02:23.637Z,77.35
2019-05-17T02:04:56.951Z,77.26
2019-05-17T02:07:29.094Z,76.55
2019-05-17T02:10:01.066Z,76.18
2019-05-17T02:12:33.057Z,75.97
2019-05-17T02:15:06.947Z,76.04
2019-05-17T02:17:38.963Z,76.24
2019-05-17T02:20:12.737Z,75.66
2019-05-17T02:22:47.080Z,76.06
2019-05-17T02:25:18.709Z,76.64
2019-05-17T02:27:52.313Z,76.78
2019-05-17T02:30:24.464Z,77.33
2019-05-17T02:32:56.606Z,77.90
2019-05-17T02:35:28.606Z,78.31
2019-05-17T02:38:02.938Z,78.35
2019-05-17T02:40:34.554Z,78.67
2019-05-17T02:43:06.508Z,78.89
2019-05-17T02:45:38.507Z,79.11
2019-05-17T02:48:13.151Z,79.11
2019-05-17T02:50:47.382Z,78.91
2019-05-17T02:53:18.234Z,79.25
2019-05-17T02:55:50.186Z,79.34
2019-05-17T02:58:23.342Z,79.95
2019-05-17T03:00:55.484Z,80.03
2019-05-17T03:03:27.465Z,80.05
2019-05-17T03:06:02.656Z,79.82
2019-05-17T03:08:34.310Z,79.60
2019-05-17T03:11:06.451Z,79.30
2019-05-17T03:13:38.404Z,79.13
2019-05-17T03:16:14.354Z,79.38
2019-05-17T03:18:44.263Z,79.24
2019-05-17T03:21:16.242Z,78.66
2019-05-17T03:23:48.280Z,78.56
2019-05-17T03:26:22.860Z,78.46
2019-05-17T03:28:54.183Z,78.47
2019-05-17T03:31:27.096Z,78.46
2019-05-17T03:34:05.602Z,78.71
2019-05-17T03:36:36.348Z,78.64
2019-05-17T03:39:08.625Z,78.93
2019-05-17T03:41:42.896Z,78.98
2019-05-17T03:44:14.425Z,78.41
2019-05-17T03:46:46.408Z,78.27
2019-05-17T03:49:18.384Z,77.48
2019-05-17T03:51:52.980Z,76.95
2019-05-17T03:54:24.318Z,76.66
2019-05-17T03:56:56.261Z,76.28
2019-05-17T03:59:28.208Z,75.84
2019-05-17T04:02:03.006Z,75.53
2019-05-17T04:04:34.027Z,75.20
2019-05-17T04:07:05.986Z,75.37
2019-05-17T04:09:37.967Z,75.41
2019-05-17T04:12:13.325Z,75.71
2019-05-17T04:14:43.826Z,76.12
2019-05-17T04:17:15.783Z,76.01
2019-05-17T04:19:47.767Z,76.14
2019-05-17T04:22:19.702Z,76.34
2019-05-17T04:24:52.508Z,76.17
2019-05-17T04:27:24.673Z,76.59
2019-05-17T04:29:56.643Z,76.90
2019-05-17T04:32:28.588Z,76.77
2019-05-17T04:35:03.723Z,76.52
2019-05-17T04:37:38.332Z,76.28
2019-05-17T04:40:08.536Z,76.37
2019-05-17T04:42:43.657Z,76.29
2019-05-17T04:45:14.498Z,76.29
2019-05-17T04:47:46.530Z,76.39
2019-05-17T04:50:18.539Z,76.09
2019-05-17T04:52:53.671Z,76.25
2019-05-17T04:55:24.373Z,75.91
2019-05-17T04:57:56.432Z,75.02
2019-05-17T05:00:28.440Z,75.25
2019-05-17T05:03:03.471Z,75.37
2019-05-17T05:05:34.363Z,74.92
2019-05-17T05:08:06.318Z,73.65
2019-05-17T05:10:42.740Z,73.22
2019-05-17T05:13:15.081Z,72.47
2019-05-17T05:18:33.769Z,69.14
2019-05-17T05:21:05.768Z,68.55
2019-05-17T05:23:37.752Z,67.07
2019-05-17T05:26:11.905Z,65.61
2019-05-17T05:28:43.620Z,63.94
2019-05-17T05:31:15.590Z,62.09
2019-05-17T05:33:47.557Z,61.34
2019-05-17T05:36:21.957Z,60.25
2019-05-17T05:38:53.393Z,58.42
2019-05-17T05:41:25.380Z,57.79
2019-05-17T05:43:57.376Z,57.67
2019-05-17T05:46:31.652Z,57.84
2019-05-17T05:49:03.237Z,57.16
2019-05-17T05:51:35.226Z,55.74
2019-05-17T05:54:07.170Z,55.26
2019-05-17T05:56:39.160Z,55.16
2019-05-17T05:59:12.100Z,54.17
2019-05-17T06:01:44.328Z,53.33
2019-05-17T06:04:16.341Z,52.00
2019-05-17T06:06:48.314Z,51.50
2019-05-17T06:09:22.324Z,50.63
2019-05-17T06:11:54.217Z,49.22
2019-05-17T06:14:26.207Z,49.01
2019-05-17T06:16:58.190Z,48.71
2019-05-17T06:19:31.525Z,48.03
2019-05-17T06:22:03.684Z,47.60
2019-05-17T06:24:35.701Z,45.63
2019-05-17T06:27:07.729Z,46.47
2019-05-17T06:29:41.487Z,45.18
2019-05-17T06:32:13.620Z,45.16
2019-05-17T06:34:45.609Z,46.48
2019-05-17T06:37:17.579Z,45.33
2019-05-17T06:39:49.570Z,45.38
2019-05-17T06:42:25.897Z,45.62
2019-05-17T06:44:55.462Z,44.61
2019-05-17T06:47:27.442Z,43.80
2019-05-17T06:49:59.455Z,43.91
2019-05-17T06:52:32.667Z,43.07
2019-05-17T06:55:05.953Z,42.24
2019-05-17T06:57:38.042Z,41.45
2019-05-17T07:00:18.145Z,41.82
2019-05-17T07:02:44.654Z,41.11
2019-05-17T07:05:21.456Z,41.11
2019-05-17T07:07:53.422Z,40.84
2019-05-17T07:10:25.407Z,40.95
2019-05-17T07:12:59.590Z,39.57
2019-05-17T07:15:43.693Z,42.43
2019-05-17T07:18:05.240Z,42.12
2019-05-17T07:20:39.320Z,41.20
2019-05-17T07:23:11.183Z,41.60
2019-05-17T07:25:43.228Z,40.91
2019-05-17T07:28:15.179Z,39.46
2019-05-17T07:30:47.195Z,40.66
2019-05-17T07:33:19.901Z,39.42
2019-05-17T07:35:51.974Z,38.85
2019-05-17T07:38:23.965Z,38.89
2019-05-17T07:40:55.968Z,38.02
2019-05-17T07:43:29.860Z,38.47
2019-05-17T07:46:01.838Z,39.84
2019-05-17T07:48:33.819Z,38.38
2019-05-17T07:51:05.822Z,38.68
2019-05-17T07:53:39.897Z,37.14
2019-05-17T07:56:11.692Z,37.35
2019-05-17T07:58:43.684Z,37.14
2019-05-17T08:01:15.691Z,37.28
2019-05-17T08:03:49.954Z,36.58
2019-05-17T08:06:21.588Z,35.44
2019-05-17T08:08:53.562Z,36.66
2019-05-17T08:11:25.562Z,37.54
2019-05-17T08:13:59.644Z,38.34
2019-05-17T08:16:31.431Z,40.29
2019-05-17T08:19:03.415Z,41.70
2019-05-17T08:21:35.386Z,40.93
2019-05-17T08:24:07.393Z,41.43
2019-05-17T08:26:40.382Z,41.22
2019-05-17T08:29:12.581Z,40.72
2019-05-17T08:31:44.551Z,40.44
2019-05-17T08:34:16.531Z,39.17
2019-05-17T08:36:49.872Z,39.61
2019-05-17T08:39:21.960Z,40.60
2019-05-17T08:41:53.947Z,39.27
2019-05-17T08:44:25.916Z,40.03
2019-05-17T08:46:59.524Z,41.06
2019-05-17T08:49:31.685Z,39.77
2019-05-17T08:52:03.722Z,39.41
2019-05-17T08:54:35.710Z,39.64
2019-05-17T08:57:09.557Z,38.75
2019-05-17T08:59:41.583Z,37.80
2019-05-17T09:02:13.599Z,38.63
2019-05-17T09:04:45.601Z,39.90
2019-05-17T09:07:20.194Z,39.27
2019-05-17T09:09:51.546Z,39.21
2019-05-17T09:12:23.518Z,39.47
2019-05-17T09:14:55.533Z,38.74
2019-05-17T09:17:29.849Z,39.71
2019-05-17T09:20:01.397Z,38.83
2019-05-17T09:22:33.430Z,38.67
2019-05-17T09:25:06.871Z,38.62
2019-05-17T09:27:39.645Z,37.75
2019-05-17T09:30:13.418Z,39.00
2019-05-17T09:32:45.389Z,37.82
2019-05-17T09:35:17.376Z,38.63
2019-05-17T09:37:49.960Z,39.08
2019-05-17T09:40:22.053Z,38.59
2019-05-17T09:42:54.037Z,38.07
2019-05-17T09:45:26.009Z,38.61
2019-05-17T09:48:00.719Z,38.75
2019-05-17T09:50:32.467Z,39.31
2019-05-17T09:53:04.424Z,39.73
2019-05-17T09:55:36.407Z,39.74
2019-05-17T09:58:09.969Z,40.08
2019-05-17T10:00:42.143Z,40.32
2019-05-17T10:03:14.114Z,40.01
2019-05-17T10:05:46.151Z,40.05
2019-05-17T10:08:18.090Z,39.06
2019-05-17T10:11:04.299Z,39.05
2019-05-17T10:13:23.967Z,39.54
2019-05-17T10:15:55.954Z,41.09
2019-05-17T10:18:29.579Z,40.09
2019-05-17T10:21:01.742Z,40.58
2019-05-17T10:23:33.700Z,40.75
2019-05-17T10:26:05.736Z,40.52
2019-05-17T10:28:39.812Z,39.85
2019-05-17T10:31:12.198Z,40.23
2019-05-17T10:33:44.308Z,40.31
2019-05-17T10:36:16.336Z,39.63
2019-05-17T10:38:50.214Z,39.93
2019-05-17T10:41:22.190Z,41.02
2019-05-17T10:43:54.155Z,40.87
2019-05-17T10:46:26.180Z,41.28
2019-05-17T10:48:58.181Z,41.21
2019-05-17T10:51:30.202Z,40.83
2019-05-17T10:54:04.437Z,40.32
2019-05-17T10:56:36.091Z,40.63
2019-05-17T10:59:09.848Z,39.42
2019-05-17T11:01:42.005Z,40.31
2019-05-17T11:04:14.013Z,40.71
2019-05-17T11:06:46.048Z,40.73
2019-05-17T11:09:20.527Z,40.39
2019-05-17T11:11:51.973Z,39.82
2019-05-17T11:14:23.946Z,40.64
2019-05-17T11:16:56.036Z,40.99
2019-05-17T11:19:28.024Z,40.65
2019-05-17T11:22:00.086Z,40.67
2019-05-17T11:24:32.043Z,40.00
2019-05-17T11:27:04.034Z,40.01
2019-05-17T11:29:35.988Z,39.22
2019-05-17T11:32:08.030Z,40.28
2019-05-17T11:34:40.126Z,39.75
2019-05-17T11:37:12.116Z,38.41
2019-05-17T11:39:44.109Z,37.08
2019-05-17T11:42:16.096Z,38.16
2019-05-17T11:44:48.123Z,38.50
2019-05-17T11:47:20.113Z,37.89
2019-05-17T11:49:52.104Z,38.51
2019-05-17T11:52:24.144Z,36.71
2019-05-17T11:54:56.124Z,37.22
2019-05-17T11:57:28.145Z,38.01
2019-05-17T12:00:00.149Z,38.18
2019-05-17T12:02:32.144Z,37.28
2019-05-17T12:05:04.365Z,37.16
2019-05-17T12:07:36.421Z,36.01
2019-05-17T12:10:08.637Z,35.97
2019-05-17T12:12:40.638Z,36.69
2019-05-17T12:15:12.844Z,37.55
2019-05-17T12:17:44.831Z,36.79
2019-05-17T12:20:17.038Z,35.52
2019-05-17T12:22:49.072Z,35.50
2019-05-17T12:25:21.075Z,35.93
2019-05-17T12:27:53.214Z,35.88
2019-05-17T12:30:25.213Z,35.79
2019-05-17T12:32:57.200Z,35.22
2019-05-17T12:35:29.314Z,34.59
2019-05-17T12:38:01.355Z,34.77
2019-05-17T12:40:33.366Z,35.40
2019-05-17T12:43:05.367Z,35.75
2019-05-17T12:45:37.310Z,35.40
2019-05-17T12:48:09.371Z,35.33
2019-05-17T12:50:41.372Z,34.55
2019-05-17T12:53:13.360Z,34.43
2019-05-17T12:55:45.409Z,33.24
2019-05-17T12:58:17.437Z,33.70
2019-05-17T13:00:49.404Z,33.09
2019-05-17T13:03:21.401Z,33.55
2019-05-17T13:05:53.447Z,33.78
2019-05-17T13:08:25.449Z,33.78
2019-05-17T13:10:57.476Z,33.79
2019-05-17T13:13:29.477Z,33.68
2019-05-17T13:16:16.839Z,33.50
2019-05-17T13:18:35.419Z,35.79
2019-05-17T13:21:07.426Z,35.38
2019-05-17T13:23:39.515Z,34.43
2019-05-17T13:26:11.541Z,34.38
2019-05-17T13:28:43.519Z,33.58
2019-05-17T13:31:15.531Z,34.26
2019-05-17T13:33:47.503Z,34.09
2019-05-17T13:36:19.542Z,33.98
2019-05-17T13:38:51.529Z,33.01
2019-05-17T13:41:23.575Z,33.38
2019-05-17T13:43:55.707Z,33.20
2019-05-17T13:46:33.320Z,32.37
2019-05-17T13:49:01.661Z,33.09
2019-05-17T13:51:33.687Z,33.47
2019-05-17T13:54:05.750Z,32.77
2019-05-17T13:56:37.830Z,32.94
2019-05-17T13:59:09.828Z,32.89
2019-05-17T14:01:41.839Z,32.64
2019-05-17T14:04:13.867Z,33.03
2019-05-17T14:06:45.865Z,32.77
2019-05-17T14:09:17.855Z,32.39
2019-05-17T14:11:49.839Z,32.89
2019-05-17T14:14:21.810Z,32.96
2019-05-17T14:16:53.924Z,33.81
2019-05-17T14:19:25.877Z,33.89
2019-05-17T14:21:57.894Z,33.43
2019-05-17T14:24:29.920Z,33.95
2019-05-17T14:27:01.936Z,34.63
2019-05-17T14:29:33.945Z,34.61
2019-05-17T14:32:06.035Z,34.33
2019-05-17T14:34:38.444Z,34.23
2019-05-17T14:37:10.500Z,34.13
2019-05-17T14:39:42.764Z,34.17
2019-05-17T14:42:14.743Z,32.87
2019-05-17T14:44:46.732Z,33.27
2019-05-17T14:47:18.769Z,33.63
2019-05-17T14:49:51.234Z,33.42
2019-05-17T14:52:23.401Z,34.22
2019-05-17T14:54:55.409Z,34.50
2019-05-17T14:57:27.454Z,33.14
2019-05-17T14:59:59.440Z,33.90
2019-05-17T15:02:31.485Z,33.83
2019-05-17T15:05:03.702Z,33.20
2019-05-17T15:07:35.841Z,32.57
2019-05-17T15:10:08.033Z,32.32
2019-05-17T15:12:40.065Z,31.78
2019-05-17T15:15:12.241Z,31.49
2019-05-17T15:17:44.243Z,31.69
2019-05-17T15:20:16.273Z,31.37
2019-05-17T15:22:48.278Z,31.41
2019-05-17T15:25:20.913Z,31.79
2019-05-17T15:27:52.949Z,31.27
2019-05-17T15:30:24.924Z,31.35
2019-05-17T15:32:56.874Z,31.48
2019-05-17T15:35:28.900Z,32.07
2019-05-17T15:38:00.920Z,32.25
2019-05-17T15:40:32.907Z,32.53
2019-05-17T15:43:04.918Z,32.93
2019-05-17T15:45:36.924Z,32.77
2019-05-17T15:48:09.124Z,32.72
2019-05-17T15:50:41.128Z,32.58
2019-05-17T15:53:13.167Z,32.31
2019-05-17T15:55:45.160Z,32.32
2019-05-17T15:58:17.215Z,32.10
2019-05-17T16:00:49.202Z,32.48
2019-05-17T16:03:21.217Z,32.96
2019-05-17T16:05:53.248Z,33.51
2019-05-17T16:08:25.285Z,33.96
2019-05-17T16:10:57.329Z,35.67
2019-05-17T16:13:29.377Z,37.24
2019-05-17T16:16:01.364Z,36.91
2019-05-17T16:18:33.361Z,37.54
2019-05-17T16:21:05.467Z,38.02
2019-05-17T16:23:37.465Z,38.86
2019-05-17T16:26:09.505Z,39.33
2019-05-17T16:28:41.538Z,39.90
2019-05-17T16:31:13.534Z,40.36
2019-05-17T16:33:45.551Z,40.87
2019-05-17T16:36:17.582Z,44.28
2019-05-17T16:38:49.589Z,44.26
2019-05-17T16:41:21.584Z,45.04
2019-05-17T16:43:53.600Z,45.04
2019-05-17T16:46:25.600Z,45.06
2019-05-17T16:48:57.597Z,45.80
2019-05-17T16:51:29.656Z,46.34
2019-05-17T16:54:01.651Z,47.08
2019-05-17T16:56:33.652Z,47.53
2019-05-17T16:59:05.630Z,47.69
2019-05-17T17:01:37.641Z,48.09
2019-05-17T17:04:09.722Z,48.25
2019-05-17T17:06:41.761Z,48.17
2019-05-17T17:09:13.839Z,49.53
2019-05-17T17:11:45.892Z,51.64
2019-05-17T17:14:17.963Z,51.86
2019-05-17T17:16:50.036Z,52.01
2019-05-17T17:19:22.062Z,51.86
2019-05-17T17:21:54.113Z,51.87
2019-05-17T17:24:26.115Z,51.18
2019-05-17T17:26:58.171Z,52.60
2019-05-17T17:29:30.261Z,53.29
2019-05-17T17:32:02.367Z,52.78
2019-05-17T17:34:34.385Z,53.34
2019-05-17T17:37:06.433Z,53.57
2019-05-17T17:39:38.446Z,53.19
2019-05-17T17:42:10.484Z,52.78
2019-05-17T17:44:42.513Z,52.86
2019-05-17T17:47:14.579Z,52.62
2019-05-17T17:49:46.592Z,52.49
2019-05-17T17:52:18.724Z,52.88
2019-05-17T17:54:50.691Z,53.53
2019-05-17T17:57:22.742Z,53.45
2019-05-17T17:59:55.744Z,53.30
2019-05-17T18:02:27.895Z,53.75
2019-05-17T18:05:00.045Z,53.57
2019-05-17T18:07:32.298Z,53.88
2019-05-17T18:10:05.768Z,53.69
2019-05-17T18:12:37.801Z,54.41
2019-05-17T18:15:10.843Z,54.25
2019-05-17T18:17:42.965Z,54.08
2019-05-17T18:20:15.013Z,54.33
2019-05-17T18:22:47.024Z,54.61
2019-05-17T18:25:19.075Z,54.87
2019-05-17T18:27:51.128Z,55.11
2019-05-17T18:30:23.127Z,55.08
2019-05-17T18:32:55.214Z,55.42
2019-05-17T18:35:27.261Z,55.58
2019-05-17T18:37:59.319Z,55.65
2019-05-17T18:40:31.466Z,55.96
2019-05-17T18:43:03.804Z,56.22
2019-05-17T18:45:35.850Z,56.59
2019-05-17T18:48:07.875Z,56.63
2019-05-17T18:50:39.903Z,56.45
2019-05-17T18:53:16.810Z,56.96
2019-05-17T18:55:45.953Z,57.23
2019-05-17T18:58:18.063Z,57.76
2019-05-17T19:00:50.028Z,57.92
2019-05-17T19:03:22.076Z,58.54
2019-05-17T19:05:54.095Z,58.95
2019-05-17T19:08:26.134Z,59.17
2019-05-17T19:10:58.136Z,59.13
2019-05-17T19:13:30.183Z,59.08
2019-05-17T19:16:02.275Z,59.32
2019-05-17T19:18:34.315Z,59.69
2019-05-17T19:21:06.370Z,60.15
2019-05-17T19:23:38.494Z,60.37
2019-05-17T19:26:10.672Z,60.21
2019-05-17T19:28:42.757Z,60.70
2019-05-17T19:31:14.789Z,61.01
2019-05-17T19:33:46.923Z,60.92
2019-05-17T19:36:19.015Z,60.92
2019-05-17T19:38:51.077Z,61.37
2019-05-17T19:41:23.111Z,61.86
2019-05-17T19:43:55.263Z,62.10
2019-05-17T19:46:27.324Z,62.53
2019-05-17T19:48:59.302Z,62.57
2019-05-17T19:51:31.399Z,62.98
2019-05-17T19:54:03.425Z,62.86
2019-05-17T19:56:35.466Z,63.08
2019-05-17T19:59:07.451Z,63.34
2019-05-17T20:01:39.528Z,63.29
2019-05-17T20:04:11.555Z,63.07
2019-05-17T20:06:43.598Z,63.50
2019-05-17T20:09:15.672Z,63.54
2019-05-17T20:11:47.697Z,63.37
2019-05-17T20:14:19.772Z,63.77
2019-05-17T20:16:51.889Z,64.21
2019-05-17T20:19:23.930Z,64.61
2019-05-17T20:21:55.986Z,65.00
2019-05-17T20:24:27.976Z,64.98
2019-05-17T20:27:00.115Z,64.89
2019-05-17T20:29:32.260Z,65.06
2019-05-17T20:32:04.467Z,65.11
2019-05-17T20:34:36.498Z,65.30
2019-05-17T20:37:08.539Z,64.83
2019-05-17T20:39:40.664Z,64.73
2019-05-17T20:42:12.781Z,64.73
2019-05-17T20:44:44.809Z,64.50
2019-05-17T20:47:16.873Z,64.35
2019-05-17T20:49:48.926Z,64.21
2019-05-17T20:52:21.031Z,64.25
2019-05-17T20:54:53.064Z,64.16
2019-05-17T20:57:25.110Z,64.03
2019-05-17T20:59:57.239Z,64.24
2019-05-17T21:02:29.310Z,64.97
2019-05-17T21:05:01.305Z,65.79
2019-05-17T21:07:33.392Z,66.18
2019-05-17T21:10:05.508Z,65.83
2019-05-17T21:12:37.555Z,66.02
2019-05-17T21:15:09.872Z,65.72
2019-05-17T21:17:41.956Z,66.31
2019-05-17T21:20:13.939Z,67.10
2019-05-17T21:22:45.949Z,69.09
2019-05-17T21:25:17.967Z,70.66
2019-05-17T21:27:50.015Z,72.19
2019-05-17T21:30:22.036Z,70.80
2019-05-17T21:32:54.026Z,73.52
2019-05-17T21:35:26.015Z,76.35
2019-05-17T21:37:58.061Z,78.29
2019-05-17T21:40:30.021Z,79.31
2019-05-17T21:43:02.024Z,78.72
2019-05-17T21:45:34.033Z,79.23
2019-05-17T21:48:06.078Z,79.18
2019-05-17T21:50:38.092Z,80.37
2019-05-17T21:53:10.127Z,80.61
2019-05-17T21:55:42.165Z,80.53
2019-05-17T21:58:14.183Z,80.62
2019-05-17T22:01:10.462Z,81.17
2019-05-17T22:03:42.460Z,81.68
2019-05-17T22:06:14.545Z,81.67
2019-05-17T22:08:46.590Z,81.43
2019-05-17T22:11:18.608Z,82.29
2019-05-17T22:13:50.592Z,82.08
2019-05-17T22:16:22.575Z,81.95
2019-05-17T22:18:54.619Z,81.56
2019-05-17T22:21:26.584Z,82.40
2019-05-17T22:23:58.625Z,82.36
2019-05-17T22:26:30.634Z,82.51
2019-05-17T22:29:02.661Z,82.24
2019-05-17T22:31:34.734Z,82.42
2019-05-17T22:34:06.711Z,82.24
2019-05-17T22:36:38.671Z,82.21
2019-05-17T22:39:10.685Z,81.95
2019-05-17T22:41:42.670Z,81.49
2019-05-17T22:44:14.656Z,81.32
2019-05-17T22:46:46.629Z,81.33
2019-05-17T22:49:18.659Z,81.69
2019-05-17T22:51:50.718Z,81.95
2019-05-17T22:54:22.658Z,81.77
2019-05-17T22:56:54.642Z,81.70
2019-05-17T22:59:26.600Z,81.59
2019-05-17T23:01:58.593Z,80.95
2019-05-17T23:04:30.554Z,81.62
2019-05-17T23:07:02.563Z,81.32
2019-05-17T23:09:34.549Z,81.37
2019-05-17T23:12:06.550Z,81.37
2019-05-17T23:14:38.500Z,81.27
2019-05-17T23:17:10.478Z,81.71
2019-05-17T23:19:42.459Z,81.81
2019-05-17T23:22:14.495Z,81.13
2019-05-17T23:24:46.421Z,81.33
2019-05-17T23:27:18.454Z,81.12
2019-05-17T23:29:50.431Z,80.12
2019-05-17T23:32:22.396Z,79.96
2019-05-17T23:34:54.370Z,80.23
2019-05-17T23:37:26.359Z,80.52
2019-05-17T23:39:58.372Z,81.21
2019-05-17T23:42:30.390Z,80.84
2019-05-17T23:45:02.453Z,80.69
2019-05-17T23:47:34.450Z,80.89
2019-05-17T23:50:07.731Z,80.65
2019-05-17T23:52:39.749Z,80.79
2019-05-17T23:55:11.725Z,80.92
2019-05-17T23:57:43.727Z,80.68
